Seaton, Illinois
Current Conditions -  °F | °C
As of 3:55 PM on Tuesday 25 Nov 2014 (Local Time) from KGBG Reporting Station
Scattered Clouds Scattered Clouds  
Wind Chill: 27°   Ceiling: Unl
Heat Index: 27°   Visibility: 10mi
Dew Point: 21°   Wind: 3mph
Humidity: 78%   Direction: 220°SW
Pressure: 30.15"   Gusts: NA
Location:  41.1°N, 90.8°W
Report Text: KGBG 252155Z AUTO 22003KT 10SM SCT018 M03/M06 A3015 RMK AO2 T10271060
Loading
Personal Weather Stations






























Interactive Weather Map New forecast layout! Learn more

10-Day Weather Forecast

Advertisements
Track Severe Weather on mobile